METAR Data
IDs: Format: Raw Decoded Include TAF

Data at: 0828 UTC 20 Sep 2018

KNQA 200815Z AUTO 00000KT 8SM CLR 22/22 A2997 RMK A01
KNQA 200755Z AUTO 00000KT 8SM CLR 22/22 A2997 RMK A01
KNQA 200735Z AUTO 00000KT 9SM 23/22 A2997 RMK A01
KNQA 200715Z AUTO 00000KT 10SM 23/22 A2997 RMK A01
KNQA 200655Z 00000KT 10SM SKC 24/22 A2997 RMK A01
KNQA 200635Z 00000KT 10SM SKC 23/22 A2997 RMK A01
KNQA 200550Z 00000KT 10SM SKC 23/22 A2997
KNQA 200450Z 00000KT 10SM SKC 24/22 A2998
KNQA 200350Z 00000KT 10SM SKC 25/23 A2998
KNQA 200250Z 00000KT 10SM SKC 25/22 A2997
KNQA 200150Z 00000KT 10SM SKC 26/23 A2996
KNQA 200050Z 03003KT 10SM FEW065 29/21 A2994
KNQA 192350Z 03003KT 10SM FEW065 30/22 A2994
KNQA 192250Z 03003KT 10SM SKC 33/23 A2993
KNQA 192150Z 36003KT 10SM FEW050 34/21 A2993
KNQA 192050Z 36003KT 10SM SCT060 32/22 A2994
KNQA 191950Z 21003KT 10SM SCT050 34/21 A2995
KNQA 191850Z 13005KT 10SM SCT050 33/21 A2998
KNQA 191750Z 23007KT 10SM SCT050 33/21 A2999
KNQA 191650Z 22005KT 10SM FEW050 33/20 A3002
KNQA 191550Z 13005KT 10SM SKC 32/20 A3002
KNQA 191450Z 21005KT 10SM SKC 30/21 A3001
KNQA 191350Z 00000KT 10SM SKC 27/22 A3000
KNQA 191250Z 00000KT 10SM SKC 22/21 A3000
KNQA 191150Z 00000KT 10SM SKC 21/21 A2999
KNQA 191050Z 00000KT 10SM SKC 22/21 A2997
KNQA 191030Z 00000KT 10SM SKC 22/21 A2996
KNQA 191015Z AUTO 00000KT 10SM CLR 22/21 A2996 RMK A01
KNQA 190955Z AUTO 00000KT 10SM CLR 22/21 A2995 RMK A01
KNQA 190935Z AUTO 00000KT 10SM CLR 22/21 A2995 RMK A01
KNQA 190915Z AUTO 00000KT 10SM CLR 22/22 A2995 RMK A01
KNQA 190855Z AUTO 00000KT 10SM CLR 22/21 A2995 RMK A01
KNQA 190835Z AUTO 00000KT 10SM CLR 22/21 A2995 RMK A01
KNQA 190815Z AUTO 00000KT 10SM CLR 22/21 A2994 RMK A01
KNQA 190755Z AUTO 00000KT 10SM CLR 22/22 A2994 RMK A01
KNQA 190735Z AUTO 10003KT 10SM CLR 22/22 A2994 RMK A01
KNQA 190715Z AUTO 00000KT 10SM CLR 22/22 A2994 RMK A01
KNQA 190655Z 00000KT 10SM SKC 22/21 A2994 RMK A01
KNQA 190650Z 00000KT 10SM SKC 22/21 A2994
KNQA 190550Z 00000KT 10SM SKC 23/22 A2994
KNQA 190450Z 00000KT 10SM SKC 23/22 A2994
KNQA 190350Z 00000KT 10SM SKC 23/22 A2995
KNQA 190250Z 00000KT 10SM SKC 24/22 A2994
KNQA 190150Z 00000KT 10SM SCT080 SCT150 25/22 A2993
KNQA 190050Z 00000KT 10SM SCT080 SCT150 28/20 A2992
KNQA 182350Z 00000KT 10SM SCT080 SCT150 30/20 A2991
KNQA 182250Z 08003KT 10SM SCT110 33/20 A2991
KNQA 182150Z 18003KT 10SM FEW050 33/18 A2992
KNQA 182050Z 19003KT 10SM SCT090 33/18 A2993